Time;durP1;ratioP1;P1;durP2;ratioP2;P2;SDS_P1;SDS_P2;PMS_P1;PMS_P2;Temp;Humidity;BMP_temperature;BMP_pressure;BME280_temperature;BME280_humidity;BME280_pressure;Samples;Min_cycle;Max_cycle;Signal;HPM_P1;HPM_P2
2023/10/27 00:02:06;;;;;;;33.63;23.30;;;10.00;85.30;;;;;;6243454;28;20325;-80
2023/10/27 00:05:10;;;;;;;37.93;24.87;;;10.00;85.30;;;;;;6255873;28;20245;-83
2023/10/27 00:08:13;;;;;;;44.20;28.37;;;10.00;85.30;;;;;;6243577;28;20727;-85
2023/10/27 00:11:16;;;;;;;42.47;24.73;;;10.00;85.20;;;;;;6260305;28;20751;-83
2023/10/27 00:14:21;;;;;;;39.07;26.00;;;10.00;85.40;;;;;;6266564;28;20249;-82
2023/10/27 00:17:24;;;;;;;32.90;22.83;;;10.00;85.50;;;;;;6252862;28;20400;-83
2023/10/27 00:20:28;;;;;;;43.33;25.97;;;10.00;85.50;;;;;;6246888;28;20242;-84
2023/10/27 00:23:32;;;;;;;42.73;24.93;;;10.00;85.40;;;;;;6246810;28;20241;-84
2023/10/27 00:26:35;;;;;;;40.27;25.13;;;10.00;85.40;;;;;;6234581;28;20233;-84
2023/10/27 00:29:39;;;;;;;40.60;24.87;;;9.90;85.40;;;;;;6239934;28;20234;-84
2023/10/27 00:32:43;;;;;;;35.67;22.73;;;9.90;85.50;;;;;;6238876;28;20248;-82
2023/10/27 00:35:50;;;;;;;46.63;25.63;;;9.90;85.50;;;;;;6253109;28;20681;-84
2023/10/27 00:38:53;;;;;;;40.03;24.27;;;9.80;85.20;;;;;;6240291;28;20234;-80
2023/10/27 00:41:56;;;;;;;37.97;23.83;;;9.80;85.50;;;;;;6254881;28;20325;-82
2023/10/27 00:45:01;;;;;;;36.53;24.53;;;9.80;85.60;;;;;;6238677;28;20781;-82
2023/10/27 00:48:05;;;;;;;43.63;26.13;;;9.80;85.50;;;;;;6240295;28;20235;-81
2023/10/27 00:51:15;;;;;;;40.97;24.93;;;9.80;85.40;;;;;;6246887;28;20234;-84
2023/10/27 00:54:20;;;;;;;42.30;24.93;;;9.80;85.40;;;;;;6243311;28;20238;-82
2023/10/27 00:57:24;;;;;;;41.00;23.87;;;9.80;85.50;;;;;;6242904;28;20250;-83
2023/10/27 01:00:29;;;;;;;43.17;22.97;;;9.80;85.50;;;;;;6244616;28;20245;-84
2023/10/27 01:03:33;;;;;;;39.93;23.77;;;9.80;85.40;;;;;;6214897;28;20296;-87
2023/10/27 01:06:36;;;;;;;38.83;23.57;;;9.80;85.50;;;;;;6206939;28;20305;-83
2023/10/27 01:09:39;;;;;;;41.77;24.97;;;9.70;85.40;;;;;;6213774;28;20231;-82
2023/10/27 01:12:46;;;;;;;36.97;22.43;;;9.70;85.30;;;;;;6211934;28;20238;-80
2023/10/27 01:15:51;;;;;;;43.67;24.50;;;9.70;85.40;;;;;;6214057;28;20246;-84
2023/10/27 01:18:55;;;;;;;38.37;22.70;;;9.70;85.40;;;;;;6213229;28;20936;-83
2023/10/27 01:21:58;;;;;;;50.10;24.43;;;9.70;85.40;;;;;;6204677;28;20250;-83
2023/10/27 01:25:03;;;;;;;49.37;25.63;;;9.70;85.40;;;;;;6211956;28;20245;-84
2023/10/27 01:28:08;;;;;;;44.00;24.83;;;9.70;85.50;;;;;;6213408;28;20253;-81
2023/10/27 01:31:12;;;;;;;52.00;25.50;;;9.70;85.50;;;;;;6199260;28;20254;-84
2023/10/27 01:34:15;;;;;;;49.90;26.00;;;9.70;85.50;;;;;;6193660;28;20252;-84
2023/10/27 01:37:18;;;;;;;48.30;25.47;;;9.70;85.50;;;;;;6252656;28;20235;-84
2023/10/27 01:40:23;;;;;;;43.10;23.40;;;9.70;85.60;;;;;;6231086;28;20246;-83
2023/10/27 01:43:27;;;;;;;56.53;27.60;;;9.70;85.60;;;;;;6236951;28;20245;-83
2023/10/27 01:46:30;;;;;;;44.83;24.27;;;9.70;85.50;;;;;;6237398;28;20341;-83
2023/10/27 01:49:33;;;;;;;55.27;27.50;;;9.70;85.60;;;;;;6237486;28;20226;-82
2023/10/27 01:52:37;;;;;;;51.43;26.47;;;9.70;85.50;;;;;;6230231;28;20610;-84
2023/10/27 01:55:45;;;;;;;53.83;28.37;;;9.70;85.50;;;;;;6250464;28;20262;-80
2023/10/27 01:58:48;;;;;;;52.87;27.00;;;9.80;85.30;;;;;;6253812;28;20241;-82
2023/10/27 02:01:51;;;;;;;46.10;26.07;;;9.80;85.30;;;;;;6259698;28;20522;-83
2023/10/27 02:04:54;;;;;;;47.77;25.87;;;9.70;85.30;;;;;;6254057;28;20923;-84
2023/10/27 02:07:58;;;;;;;47.07;25.97;;;9.80;85.30;;;;;;6236381;28;20637;-84
2023/10/27 02:11:04;;;;;;;44.57;25.43;;;9.70;85.20;;;;;;6230477;28;20861;-84
2023/10/27 02:14:07;;;;;;;43.97;23.97;;;9.70;85.20;;;;;;6234269;28;20608;-84
2023/10/27 02:17:11;;;;;;;41.07;23.17;;;9.70;85.00;;;;;;6208048;28;20231;-84
2023/10/27 02:20:14;;;;;;;49.93;25.33;;;9.70;85.00;;;;;;6213190;28;20235;-82
2023/10/27 02:23:17;;;;;;;40.77;23.97;;;9.70;85.00;;;;;;6207604;28;20267;-83
2023/10/27 02:26:22;;;;;;;42.33;23.53;;;9.70;84.90;;;;;;6211009;28;20382;-84
2023/10/27 02:29:25;;;;;;;34.87;22.40;;;9.80;84.90;;;;;;6212319;28;20243;-85
2023/10/27 02:32:30;;;;;;;46.47;25.37;;;9.80;85.00;;;;;;6210844;28;20251;-85
2023/10/27 02:35:33;;;;;;;38.73;22.70;;;9.80;84.80;;;;;;6210907;28;20752;-81
2023/10/27 02:38:36;;;;;;;39.53;21.93;;;9.80;84.70;;;;;;6212268;28;20277;-82
2023/10/27 02:41:41;;;;;;;39.93;23.43;;;9.80;84.60;;;;;;6212032;28;20239;-83
2023/10/27 02:44:44;;;;;;;38.63;24.20;;;9.80;84.60;;;;;;6211079;28;20243;-83
2023/10/27 02:47:47;;;;;;;35.57;22.53;;;9.70;84.60;;;;;;6212127;28;20239;-84
2023/10/27 02:50:50;;;;;;;35.03;21.97;;;9.80;84.60;;;;;;6212198;28;20242;-84
2023/10/27 02:53:54;;;;;;;37.60;23.10;;;9.80;84.50;;;;;;6212518;28;20250;-83
2023/10/27 02:56:59;;;;;;;34.80;22.53;;;9.80;84.50;;;;;;6211167;28;20245;-84
2023/10/27 03:00:02;;;;;;;33.90;21.73;;;9.80;84.20;;;;;;6211843;28;20284;-83
2023/10/27 03:03:07;;;;;;;36.47;22.83;;;9.70;84.20;;;;;;6211436;28;20243;-83
2023/10/27 03:06:11;;;;;;;31.20;20.73;;;9.70;84.30;;;;;;6203628;28;20236;-82
2023/10/27 03:09:15;;;;;;;33.40;22.43;;;9.70;84.30;;;;;;6219455;28;20231;-83
2023/10/27 03:12:20;;;;;;;25.13;18.97;;;9.70;84.30;;;;;;6211729;28;20259;-83
2023/10/27 03:15:23;;;;;;;30.73;20.27;;;9.70;84.40;;;;;;6195695;28;20232;-83
2023/10/27 03:18:27;;;;;;;25.13;19.10;;;9.70;84.30;;;;;;6212348;28;20251;-82
2023/10/27 03:21:30;;;;;;;27.73;20.60;;;9.70;84.30;;;;;;6212353;28;20236;-84
2023/10/27 03:24:33;;;;;;;29.33;22.30;;;9.70;84.30;;;;;;6212480;28;20250;-86
2023/10/27 03:27:38;;;;;;;30.23;21.47;;;9.80;84.30;;;;;;6222849;28;20365;-83
2023/10/27 03:30:42;;;;;;;35.73;22.40;;;9.70;84.30;;;;;;6234179;28;20242;-84
2023/10/27 03:33:45;;;;;;;29.43;20.53;;;9.70;84.20;;;;;;6230293;28;20769;-82
2023/10/27 03:36:48;;;;;;;33.43;20.53;;;9.70;84.30;;;;;;6242291;28;20345;-83
2023/10/27 03:39:52;;;;;;;32.40;21.93;;;9.70;84.30;;;;;;6224635;28;20227;-83
2023/10/27 03:42:56;;;;;;;33.77;22.17;;;9.70;84.30;;;;;;6237191;28;20277;-85
2023/10/27 03:45:59;;;;;;;36.03;24.07;;;9.70;84.20;;;;;;6239024;28;20733;-82
2023/10/27 03:49:03;;;;;;;31.67;22.83;;;9.70;84.20;;;;;;6240720;28;20659;-84
2023/10/27 03:52:09;;;;;;;31.23;21.63;;;9.70;84.30;;;;;;6233247;28;20227;-82
2023/10/27 03:55:13;;;;;;;33.70;21.97;;;9.70;84.40;;;;;;6234649;28;20761;-83
2023/10/27 03:58:18;;;;;;;32.13;21.73;;;9.70;84.30;;;;;;6231298;28;20254;-84
2023/10/27 04:01:27;;;;;;;30.60;20.07;;;9.70;84.30;;;;;;6238487;28;20250;-81
2023/10/27 04:04:33;;;;;;;32.17;21.73;;;9.70;84.30;;;;;;6239970;28;20243;-85
2023/10/27 04:07:36;;;;;;;32.73;22.23;;;9.70;84.20;;;;;;6235952;28;20246;-84
2023/10/27 04:10:40;;;;;;;30.70;22.53;;;9.70;84.20;;;;;;6232458;28;20238;-82
2023/10/27 04:13:44;;;;;;;28.37;19.07;;;9.70;84.30;;;;;;6230788;28;20261;-82
2023/10/27 04:16:47;;;;;;;31.23;21.33;;;9.70;84.30;;;;;;6246371;28;20324;-82
2023/10/27 04:19:52;;;;;;;31.33;20.80;;;9.70;84.30;;;;;;6237186;28;20235;-83
2023/10/27 04:22:55;;;;;;;31.53;21.63;;;9.70;84.30;;;;;;6236255;28;20242;-84
2023/10/27 04:25:58;;;;;;;31.47;21.90;;;9.70;84.30;;;;;;6240204;28;20746;-82
2023/10/27 04:29:03;;;;;;;32.20;22.53;;;9.70;84.30;;;;;;6239963;28;20226;-82
2023/10/27 04:32:07;;;;;;;34.17;21.87;;;9.70;84.30;;;;;;6238387;28;20320;-84
2023/10/27 04:35:11;;;;;;;36.87;22.43;;;9.70;84.30;;;;;;6237263;28;20737;-84
2023/10/27 04:38:14;;;;;;;30.80;21.63;;;9.70;84.30;;;;;;6238425;28;20278;-83
2023/10/27 04:41:18;;;;;;;30.70;21.37;;;9.70;84.30;;;;;;6238244;28;20593;-80
2023/10/27 04:44:25;;;;;;;25.47;19.27;;;9.70;84.30;;;;;;6236744;28;20380;-84
2023/10/27 04:47:28;;;;;;;35.87;23.03;;;9.70;84.30;;;;;;6239168;28;20257;-84
2023/10/27 04:50:32;;;;;;;30.33;20.67;;;9.70;84.30;;;;;;6236460;28;20243;-84
2023/10/27 04:53:36;;;;;;;33.40;22.60;;;9.70;84.50;;;;;;6232290;28;20597;-81
2023/10/27 04:56:39;;;;;;;36.43;23.80;;;9.70;84.40;;;;;;6236917;28;20234;-83
2023/10/27 04:59:43;;;;;;;31.00;22.80;;;9.70;84.50;;;;;;6233542;28;20230;-82
2023/10/27 05:02:47;;;;;;;35.27;23.13;;;9.70;84.50;;;;;;6234668;28;20322;-81
2023/10/27 05:05:51;;;;;;;32.20;21.07;;;9.60;84.60;;;;;;6234744;28;20317;-84
2023/10/27 05:08:54;;;;;;;35.20;21.97;;;9.60;84.70;;;;;;6233979;28;20220;-82
2023/10/27 05:11:57;;;;;;;30.83;20.17;;;9.60;84.70;;;;;;6235121;28;20316;-82
2023/10/27 05:15:02;;;;;;;29.47;20.70;;;9.60;84.80;;;;;;6237651;28;20243;-83
2023/10/27 05:18:06;;;;;;;32.37;20.87;;;9.60;84.90;;;;;;6231584;28;20238;-84
2023/10/27 05:21:16;;;;;;;32.73;21.37;;;9.50;84.80;;;;;;6236867;28;20234;-84
2023/10/27 05:24:19;;;;;;;34.13;21.83;;;9.60;84.90;;;;;;6230606;28;20772;-81
2023/10/27 05:27:22;;;;;;;34.47;22.33;;;9.60;85.00;;;;;;6233141;28;20273;-82
2023/10/27 05:30:27;;;;;;;35.47;21.73;;;9.60;84.90;;;;;;6236509;28;20246;-85
2023/10/27 05:33:30;;;;;;;30.50;20.43;;;9.60;84.90;;;;;;6239286;28;20251;-83
2023/10/27 05:36:33;;;;;;;29.07;19.20;;;9.50;85.00;;;;;;6239093;28;20238;-84
2023/10/27 05:39:36;;;;;;;36.53;22.53;;;9.60;85.10;;;;;;6235009;28;20293;-84
2023/10/27 05:42:39;;;;;;;35.43;20.17;;;9.60;85.20;;;;;;6213344;28;20269;-84
2023/10/27 05:45:44;;;;;;;33.40;20.20;;;9.50;85.10;;;;;;6214341;28;20243;-83
2023/10/27 05:48:47;;;;;;;34.67;18.37;;;9.50;85.20;;;;;;6218322;28;20751;-84
2023/10/27 05:51:53;;;;;;;29.23;19.10;;;9.50;85.30;;;;;;6244184;28;20226;-82
2023/10/27 05:54:56;;;;;;;31.30;18.87;;;9.50;85.40;;;;;;6238683;28;20242;-83
2023/10/27 05:58:00;;;;;;;31.90;18.13;;;9.50;85.40;;;;;;6238276;28;20372;-83
2023/10/27 06:01:05;;;;;;;29.90;19.37;;;9.50;85.40;;;;;;6229939;28;20322;-84
2023/10/27 06:04:08;;;;;;;32.33;19.70;;;9.60;85.40;;;;;;6235807;28;20293;-84
2023/10/27 06:07:15;;;;;;;33.00;19.93;;;9.60;85.50;;;;;;6236970;28;20237;-84
2023/10/27 06:10:19;;;;;;;32.77;19.37;;;9.60;85.40;;;;;;6263301;28;20239;-84
2023/10/27 06:13:22;;;;;;;31.87;19.10;;;9.60;85.40;;;;;;6226145;28;20296;-81
2023/10/27 06:16:27;;;;;;;31.87;20.53;;;9.60;85.30;;;;;;6236620;28;20345;-83
2023/10/27 06:19:31;;;;;;;36.83;20.40;;;9.60;85.40;;;;;;6239118;28;20292;-81
2023/10/27 06:22:34;;;;;;;31.63;18.43;;;9.60;85.30;;;;;;6237024;28;20239;-83
2023/10/27 06:25:37;;;;;;;33.17;19.43;;;9.70;85.30;;;;;;6238806;28;20249;-82
2023/10/27 06:28:41;;;;;;;31.47;18.83;;;9.70;85.20;;;;;;6237933;28;20362;-84
2023/10/27 06:31:45;;;;;;;31.80;19.03;;;9.70;85.10;;;;;;6233502;28;20240;-83
2023/10/27 06:34:48;;;;;;;36.57;19.43;;;9.60;85.10;;;;;;6237541;28;20246;-80
2023/10/27 06:37:52;;;;;;;32.30;19.83;;;9.70;85.30;;;;;;6228020;28;20244;-85
2023/10/27 06:40:55;;;;;;;30.17;19.37;;;9.70;85.20;;;;;;6220544;28;20286;-84
2023/10/27 06:43:58;;;;;;;28.97;18.43;;;9.70;85.00;;;;;;6233051;28;20233;-82
2023/10/27 06:47:03;;;;;;;37.00;21.03;;;9.70;85.00;;;;;;6259950;28;20233;-82
2023/10/27 06:50:07;;;;;;;33.33;20.73;;;9.70;85.20;;;;;;6239838;28;20321;-84
2023/10/27 06:53:10;;;;;;;37.13;20.50;;;9.60;85.20;;;;;;6240264;28;20352;-83
2023/10/27 06:56:13;;;;;;;36.13;20.83;;;9.70;85.30;;;;;;6252469;28;20235;-83
2023/10/27 06:59:17;;;;;;;33.60;20.33;;;9.60;85.40;;;;;;6249003;28;20317;-83
2023/10/27 07:02:25;;;;;;;32.30;19.20;;;9.60;85.40;;;;;;6249322;28;20242;-83
2023/10/27 07:05:29;;;;;;;36.27;22.43;;;9.70;85.50;;;;;;6252744;28;20367;-82
2023/10/27 07:08:32;;;;;;;44.13;23.47;;;9.70;85.30;;;;;;6241867;28;20226;-81
2023/10/27 07:11:35;;;;;;;31.07;20.40;;;9.70;85.20;;;;;;6248721;28;20242;-82
2023/10/27 07:14:39;;;;;;;42.33;25.40;;;9.80;85.30;;;;;;6246705;28;20239;-83
2023/10/27 07:17:48;;;;;;;41.40;24.53;;;9.80;85.00;;;;;;6251091;28;21591;-84
2023/10/27 07:20:53;;;;;;;32.70;21.77;;;9.80;85.00;;;;;;6252528;28;20261;-82
2023/10/27 07:23:56;;;;;;;28.83;20.20;;;9.80;84.90;;;;;;6245730;28;20733;-85
2023/10/27 07:27:00;;;;;;;32.93;21.63;;;10.00;84.90;;;;;;6243964;28;20241;-80
2023/10/27 07:30:03;;;;;;;32.87;21.70;;;10.00;84.80;;;;;;6250167;28;20292;-85
2023/10/27 07:33:10;;;;;;;36.47;23.63;;;9.90;84.30;;;;;;6254497;28;20234;-81
2023/10/27 07:36:13;;;;;;;36.43;23.43;;;10.00;84.20;;;;;;6243214;28;20242;-83
2023/10/27 07:39:17;;;;;;;35.43;22.60;;;10.00;84.10;;;;;;6249001;28;20245;-83
2023/10/27 07:42:20;;;;;;;37.03;22.63;;;10.00;83.60;;;;;;6242995;28;20266;-81
2023/10/27 07:45:23;;;;;;;36.90;22.83;;;10.00;83.40;;;;;;6248379;28;20783;-81
2023/10/27 07:48:28;;;;;;;33.40;22.53;;;10.00;83.10;;;;;;6244924;28;20238;-83
2023/10/27 07:51:31;;;;;;;36.97;23.10;;;10.00;83.10;;;;;;6246822;28;20254;-84
2023/10/27 07:54:34;;;;;;;33.43;22.67;;;10.00;83.10;;;;;;6242035;28;20247;-80
2023/10/27 07:57:38;;;;;;;29.63;19.67;;;10.00;83.20;;;;;;6247357;28;20231;-81
2023/10/27 08:00:41;;;;;;;30.27;20.30;;;10.00;83.10;;;;;;6256418;28;20242;-85
2023/10/27 08:03:46;;;;;;;35.57;22.33;;;10.10;82.90;;;;;;6255626;28;20327;-83
2023/10/27 08:06:49;;;;;;;33.77;22.03;;;10.00;82.50;;;;;;6253250;28;20235;-84
2023/10/27 08:09:52;;;;;;;27.50;19.07;;;10.10;82.50;;;;;;6243172;28;20230;-83
2023/10/27 08:12:56;;;;;;;26.30;19.13;;;10.10;82.20;;;;;;6249400;28;20238;-84
2023/10/27 08:16:00;;;;;;;27.27;20.07;;;10.20;82.30;;;;;;6247514;28;20246;-84
2023/10/27 08:19:04;;;;;;;27.93;19.90;;;10.20;82.10;;;;;;6249193;28;20652;-80
2023/10/27 08:22:07;;;;;;;31.77;21.47;;;10.20;82.00;;;;;;6252712;28;20742;-82
2023/10/27 08:25:10;;;;;;;32.57;21.23;;;10.20;81.80;;;;;;6244232;28;20238;-83
2023/10/27 08:28:14;;;;;;;31.00;20.77;;;10.20;81.60;;;;;;6250219;28;20325;-82
2023/10/27 08:31:18;;;;;;;26.97;20.97;;;10.20;81.60;;;;;;6245978;28;20238;-83
2023/10/27 08:34:23;;;;;;;31.60;21.27;;;10.20;81.60;;;;;;6242741;28;20251;-82
2023/10/27 08:37:26;;;;;;;29.27;19.40;;;10.20;81.60;;;;;;6250608;28;20239;-84
2023/10/27 08:40:30;;;;;;;28.40;19.83;;;10.10;81.50;;;;;;6259790;28;20231;-83
2023/10/27 08:43:34;;;;;;;26.50;18.97;;;10.10;81.50;;;;;;6249514;28;20328;-82
2023/10/27 08:46:38;;;;;;;25.83;18.73;;;10.10;81.50;;;;;;6245774;28;20276;-82
2023/10/27 08:49:42;;;;;;;28.13;19.30;;;10.20;81.50;;;;;;6248687;28;20273;-81
2023/10/27 08:52:48;;;;;;;28.10;19.37;;;10.20;81.40;;;;;;6259227;28;20643;-82
2023/10/27 08:55:51;;;;;;;24.03;18.57;;;10.20;81.20;;;;;;6246083;28;20230;-82
2023/10/27 08:58:54;;;;;;;26.23;18.70;;;10.20;81.40;;;;;;6258274;28;20257;-80
2023/10/27 09:01:58;;;;;;;27.20;18.70;;;10.20;81.00;;;;;;6260245;28;20239;-81
2023/10/27 09:05:04;;;;;;;23.27;17.60;;;10.20;80.90;;;;;;6247621;28;20326;-81
2023/10/27 09:08:07;;;;;;;22.53;18.17;;;10.10;81.10;;;;;;6232651;28;20230;-82
2023/10/27 09:11:10;;;;;;;21.80;17.00;;;10.20;81.20;;;;;;6235935;28;20234;-84
2023/10/27 09:14:18;;;;;;;23.80;17.43;;;10.10;81.20;;;;;;6241725;28;20373;-82
2023/10/27 09:17:22;;;;;;;24.73;18.03;;;10.20;81.40;;;;;;6235564;28;20247;-81
2023/10/27 09:20:27;;;;;;;27.67;18.30;;;10.30;81.30;;;;;;6253335;28;20753;-82
2023/10/27 09:23:44;;;;;;;20.87;16.93;;;10.30;81.00;;;;;;6235118;28;20253;-81
2023/10/27 09:26:47;;;;;;;23.17;17.87;;;10.30;81.10;;;;;;6241635;28;20242;-83
2023/10/27 09:29:51;;;;;;;24.57;18.07;;;10.30;81.20;;;;;;6270604;28;20239;-83
2023/10/27 09:32:55;;;;;;;25.97;18.67;;;10.30;81.10;;;;;;6243462;28;20227;-82
2023/10/27 09:36:02;;;;;;;20.70;16.30;;;10.30;81.20;;;;;;6221095;28;20227;-81
2023/10/27 09:39:06;;;;;;;26.93;18.07;;;10.30;81.30;;;;;;6232125;28;20321;-81
2023/10/27 09:42:09;;;;;;;25.87;19.10;;;10.40;81.30;;;;;;6239599;28;20230;-81
2023/10/27 09:45:13;;;;;;;22.73;17.83;;;10.30;81.30;;;;;;6238263;28;20257;-79
2023/10/27 09:48:21;;;;;;;21.20;17.67;;;10.40;81.10;;;;;;6238426;28;20317;-82
2023/10/27 09:51:27;;;;;;;22.47;17.53;;;10.50;80.70;;;;;;6260229;28;20250;-82
2023/10/27 09:54:32;;;;;;;24.23;18.30;;;10.50;80.70;;;;;;6228492;28;20777;-81
2023/10/27 09:57:36;;;;;;;23.77;18.03;;;10.50;80.10;;;;;;6237502;28;20860;-85
2023/10/27 10:00:41;;;;;;;20.87;17.00;;;10.50;80.00;;;;;;6247371;28;20745;-80
2023/10/27 10:03:44;;;;;;;21.03;17.23;;;10.60;79.60;;;;;;6237956;28;20231;-82
2023/10/27 10:06:50;;;;;;;28.83;18.47;;;10.60;79.50;;;;;;6243670;28;20237;-81
2023/10/27 10:09:57;;;;;;;22.03;18.43;;;10.70;79.40;;;;;;6235274;28;20231;-82
2023/10/27 10:13:02;;;;;;;18.83;16.43;;;10.70;79.00;;;;;;6230207;28;20282;-81
2023/10/27 10:16:07;;;;;;;19.60;15.93;;;10.70;78.80;;;;;;6246199;28;20374;-78
2023/10/27 10:19:10;;;;;;;17.27;15.40;;;10.70;78.70;;;;;;6263038;28;20227;-82
2023/10/27 10:22:55;;;;;;;21.00;17.17;;;10.80;79.00;;;;;;6252046;28;20230;-83
2023/10/27 10:26:01;;;;;;;17.07;14.83;;;10.80;78.60;;;;;;6246732;28;20647;-80
2023/10/27 10:29:29;;;;;;;17.27;15.23;;;10.80;78.60;;;;;;6248862;28;20237;-79
2023/10/27 10:32:36;;;;;;;18.67;16.37;;;10.80;78.80;;;;;;6221082;28;20331;-80
2023/10/27 10:35:39;;;;;;;19.87;14.20;;;10.80;78.80;;;;;;6241110;28;20246;-82
2023/10/27 10:38:45;;;;;;;15.53;13.50;;;10.70;77.90;;;;;;6255156;28;20241;-81
2023/10/27 10:42:04;;;;;;;14.90;12.63;;;10.70;78.10;;;;;;6246819;28;20296;-81
2023/10/27 10:45:08;;;;;;;14.33;12.80;;;10.70;78.10;;;;;;6250042;28;20829;-83
2023/10/27 10:48:11;;;;;;;13.80;12.40;;;10.60;77.70;;;;;;6250607;28;20321;-81
2023/10/27 10:51:18;;;;;;;13.23;11.93;;;10.60;77.50;;;;;;6263755;28;20238;-82
2023/10/27 10:54:32;;;;;;;16.77;12.13;;;10.60;77.70;;;;;;6243094;28;20242;-80
2023/10/27 10:57:35;;;;;;;12.63;11.53;;;10.70;77.60;;;;;;6240908;28;20239;-85
2023/10/27 11:00:38;;;;;;;14.70;11.50;;;10.70;77.30;;;;;;6246293;28;20231;-83
2023/10/27 11:03:46;;;;;;;12.40;11.30;;;10.70;77.10;;;;;;6254969;28;20341;-82
2023/10/27 11:06:51;;;;;;;12.40;11.20;;;10.70;76.80;;;;;;6246441;28;20702;-80
2023/10/27 11:10:15;;;;;;;13.40;12.17;;;10.70;76.70;;;;;;6254023;28;20279;-82
2023/10/27 11:13:22;;;;;;;11.63;10.53;;;10.70;76.80;;;;;;6251224;28;20238;-83
2023/10/27 11:16:26;;;;;;;12.00;10.53;;;10.70;76.80;;;;;;6242933;28;20238;-82
2023/10/27 11:19:29;;;;;;;11.63;10.60;;;10.70;76.80;;;;;;6239097;28;20243;-83
2023/10/27 11:22:33;;;;;;;12.20;11.03;;;10.70;77.00;;;;;;6256321;28;20245;-80
2023/10/27 11:25:37;;;;;;;12.10;10.90;;;10.70;76.20;;;;;;6249501;28;20347;-84
2023/10/27 11:28:42;;;;;;;12.07;10.97;;;10.70;76.10;;;;;;6257398;28;20230;-83
2023/10/27 11:31:47;;;;;;;12.77;11.20;;;10.70;76.30;;;;;;6248942;28;20269;-84
2023/10/27 11:34:56;;;;;;;12.87;11.70;;;10.70;76.30;;;;;;6232352;28;20243;-83
2023/10/27 11:38:02;;;;;;;10.93;10.03;;;10.70;76.70;;;;;;6236099;28;20231;-82
2023/10/27 11:41:13;;;;;;;12.27;11.00;;;10.70;76.80;;;;;;6248707;28;20227;-81
2023/10/27 11:44:16;;;;;;;11.30;10.40;;;10.70;76.60;;;;;;6242882;28;20254;-80
2023/10/27 11:47:21;;;;;;;10.17;9.37;;;10.70;75.80;;;;;;6239614;28;20246;-81
2023/10/27 11:50:24;;;;;;;10.60;9.80;;;10.70;76.20;;;;;;6237643;28;20820;-83
2023/10/27 11:53:27;;;;;;;11.50;10.40;;;10.70;76.50;;;;;;6253479;28;20310;-83
2023/10/27 11:56:32;;;;;;;11.60;10.60;;;10.70;76.70;;;;;;6242045;28;20740;-83
2023/10/27 11:59:35;;;;;;;11.33;10.17;;;10.70;76.70;;;;;;6237202;28;20305;-82
2023/10/27 12:02:40;;;;;;;12.00;10.70;;;10.70;76.60;;;;;;6218513;28;20266;-81
2023/10/27 12:05:43;;;;;;;14.00;10.83;;;10.60;76.50;;;;;;6228924;28;20412;-80
2023/10/27 12:08:46;;;;;;;11.77;10.67;;;10.60;76.20;;;;;;6233632;28;20239;-79
2023/10/27 12:11:52;;;;;;;10.87;9.93;;;10.60;76.50;;;;;;6233344;28;20265;-80
2023/10/27 12:14:55;;;;;;;11.30;10.30;;;10.60;76.60;;;;;;6238934;28;20305;-81
2023/10/27 12:17:59;;;;;;;12.60;11.40;;;10.60;76.50;;;;;;6241446;28;20753;-82
2023/10/27 12:21:02;;;;;;;13.00;11.73;;;10.60;76.40;;;;;;6243321;28;20254;-81
2023/10/27 12:24:06;;;;;;;13.07;11.67;;;10.60;76.50;;;;;;6242781;28;20769;-83
2023/10/27 12:27:12;;;;;;;14.63;12.93;;;10.60;76.70;;;;;;6244534;28;20304;-82
2023/10/27 12:30:17;;;;;;;12.57;11.37;;;10.50;76.60;;;;;;6240395;28;20349;-82
2023/10/27 12:33:20;;;;;;;13.70;12.40;;;10.50;76.80;;;;;;6235922;28;21256;-82
2023/10/27 12:36:24;;;;;;;13.60;12.33;;;10.50;77.00;;;;;;6237950;28;20280;-80
2023/10/27 12:39:28;;;;;;;12.07;11.07;;;10.50;77.20;;;;;;6239088;28;20634;-82
2023/10/27 12:42:32;;;;;;;13.37;12.17;;;10.50;77.30;;;;;;6252435;28;20246;-81
2023/10/27 12:45:36;;;;;;;13.53;12.23;;;10.50;77.40;;;;;;6243663;28;20250;-81
2023/10/27 12:48:40;;;;;;;13.30;11.90;;;10.50;77.70;;;;;;6240443;28;20671;-80
2023/10/27 12:51:44;;;;;;;12.47;11.23;;;10.40;78.00;;;;;;6246637;28;20835;-82
2023/10/27 12:54:47;;;;;;;12.60;11.30;;;10.40;78.40;;;;;;6241189;28;20301;-81
2023/10/27 12:57:57;;;;;;;12.30;11.10;;;10.40;78.20;;;;;;6233666;28;20239;-80
2023/10/27 13:01:00;;;;;;;12.50;11.40;;;10.40;77.80;;;;;;6242718;28;20631;-81
2023/10/27 13:04:06;;;;;;;11.57;10.40;;;10.50;77.60;;;;;;6237689;28;20753;-83
2023/10/27 13:07:09;;;;;;;11.87;10.87;;;10.50;77.90;;;;;;6246141;28;20234;-83
2023/10/27 13:10:13;;;;;;;12.40;11.30;;;10.50;78.00;;;;;;6241978;28;20765;-81
2023/10/27 13:13:18;;;;;;;10.63;9.73;;;10.50;78.10;;;;;;6237724;28;20238;-82
2023/10/27 13:16:21;;;;;;;13.80;12.50;;;10.50;78.10;;;;;;6238907;28;20249;-82
2023/10/27 13:19:24;;;;;;;11.83;10.77;;;10.50;78.30;;;;;;6238235;28;20832;-81
2023/10/27 13:22:29;;;;;;;14.37;12.97;;;10.50;78.20;;;;;;6234792;28;20238;-80
2023/10/27 13:25:32;;;;;;;13.17;11.73;;;10.50;78.30;;;;;;6238045;28;20250;-83
2023/10/27 13:28:37;;;;;;;15.20;13.70;;;10.50;78.30;;;;;;6237906;28;20238;-81
2023/10/27 13:31:44;;;;;;;13.57;12.27;;;10.60;78.30;;;;;;6227289;28;20831;-84
2023/10/27 13:34:47;;;;;;;12.23;11.03;;;10.60;78.30;;;;;;6237860;28;20238;-82
2023/10/27 13:37:53;;;;;;;15.67;12.27;;;10.60;78.40;;;;;;6241647;28;20610;-81
2023/10/27 13:40:58;;;;;;;15.27;13.87;;;10.60;78.40;;;;;;6253486;28;20285;-82
2023/10/27 13:44:04;;;;;;;14.40;13.00;;;10.60;78.40;;;;;;6245313;28;20242;-81
2023/10/27 13:47:09;;;;;;;14.77;13.30;;;10.50;78.40;;;;;;6261694;28;20246;-83
2023/10/27 13:50:13;;;;;;;15.43;13.97;;;10.50;78.20;;;;;;6242122;28;24867;-82
2023/10/27 13:53:16;;;;;;;15.40;13.87;;;10.50;78.20;;;;;;6243574;28;20325;-82
2023/10/27 13:56:19;;;;;;;13.20;12.00;;;10.50;78.20;;;;;;6243798;28;20281;-83
2023/10/27 13:59:24;;;;;;;14.27;12.87;;;10.50;78.30;;;;;;6254995;28;20245;-83
2023/10/27 14:02:27;;;;;;;13.70;12.37;;;10.50;78.20;;;;;;6256630;28;20245;-83
2023/10/27 14:05:31;;;;;;;15.90;13.93;;;10.50;78.30;;;;;;6247042;28;20733;-84
2023/10/27 14:08:34;;;;;;;12.20;11.10;;;10.50;78.50;;;;;;6241986;28;20466;-81
2023/10/27 14:11:38;;;;;;;18.17;14.80;;;10.50;78.50;;;;;;6232797;28;20441;-82
2023/10/27 14:14:44;;;;;;;20.77;16.57;;;10.50;78.70;;;;;;6236179;28;20245;-83
2023/10/27 14:17:47;;;;;;;18.13;15.93;;;10.40;79.00;;;;;;6228871;28;20235;-83
2023/10/27 14:20:54;;;;;;;14.97;13.47;;;10.40;78.80;;;;;;6251387;28;20651;-83
2023/10/27 14:23:57;;;;;;;15.70;14.30;;;10.40;78.90;;;;;;6249516;28;20280;-85
2023/10/27 14:27:00;;;;;;;14.03;12.73;;;10.40;78.90;;;;;;6227519;28;20729;-83
2023/10/27 14:30:06;;;;;;;13.97;12.63;;;10.30;79.00;;;;;;6212519;28;20310;-82
2023/10/27 14:33:09;;;;;;;12.70;11.60;;;10.30;79.20;;;;;;6213720;28;20294;-83
2023/10/27 14:36:13;;;;;;;13.97;12.73;;;10.30;79.20;;;;;;6215136;28;20238;-82
2023/10/27 14:39:16;;;;;;;15.70;13.90;;;10.30;79.20;;;;;;6211442;28;20254;-81
2023/10/27 14:42:19;;;;;;;15.77;14.13;;;10.30;79.20;;;;;;6212023;28;20249;-82
2023/10/27 14:45:28;;;;;;;16.87;14.43;;;10.30;79.10;;;;;;6207537;28;20243;-83
2023/10/27 14:48:32;;;;;;;16.00;14.27;;;10.30;79.30;;;;;;6212961;28;20235;-82
2023/10/27 14:51:36;;;;;;;18.33;15.37;;;10.30;79.30;;;;;;6220939;28;20377;-80
2023/10/27 14:54:40;;;;;;;18.77;16.03;;;10.30;79.40;;;;;;6237228;28;20237;-81
2023/10/27 14:57:46;;;;;;;18.33;16.30;;;10.30;79.40;;;;;;6238611;28;20231;-82
2023/10/27 15:00:51;;;;;;;24.03;18.77;;;10.30;79.40;;;;;;6234109;28;20239;-83
2023/10/27 15:03:55;;;;;;;20.77;18.63;;;10.30;79.30;;;;;;6230237;28;20246;-81
2023/10/27 15:07:00;;;;;;;19.47;17.43;;;10.30;79.40;;;;;;6230618;28;20235;-82
2023/10/27 15:10:14;;;;;;;20.20;17.87;;;10.20;79.30;;;;;;6237161;28;20670;-81
2023/10/27 15:13:17;;;;;;;20.30;17.63;;;10.20;79.40;;;;;;6235947;28;20254;-81
2023/10/27 15:16:22;;;;;;;20.80;18.27;;;10.20;79.30;;;;;;6235787;28;20247;-81
2023/10/27 15:19:26;;;;;;;20.60;18.37;;;10.20;79.20;;;;;;6235480;28;20238;-82
2023/10/27 15:22:29;;;;;;;20.37;18.10;;;10.10;79.40;;;;;;6239144;28;20250;-81
2023/10/27 15:25:36;;;;;;;18.17;16.30;;;10.10;79.50;;;;;;6239700;28;20266;-83
2023/10/27 15:28:39;;;;;;;19.83;17.73;;;10.10;79.60;;;;;;6249008;28;20234;-81
2023/10/27 15:31:44;;;;;;;19.47;15.87;;;10.00;79.50;;;;;;6238238;28;20234;-82
2023/10/27 15:34:50;;;;;;;18.33;16.33;;;10.00;79.60;;;;;;6234940;28;20278;-84
2023/10/27 15:37:54;;;;;;;19.70;17.13;;;10.00;79.60;;;;;;6237815;28;20230;-82
2023/10/27 15:40:57;;;;;;;20.17;17.80;;;10.00;79.60;;;;;;6241368;28;20353;-82